Time;durP1;ratioP1;P1;durP2;ratioP2;P2;SDS_P1;SDS_P2;PMS_P1;PMS_P2;Temp;Humidity;BMP_temperature;BMP_pressure;BME280_temperature;BME280_humidity;BME280_pressure;Samples;Min_cycle;Max_cycle;Signal;HPM_P1;HPM_P2
2022/04/05 00:01:41;;;;;;;;;13.33;12.33;;;;;11.57;54.26;100936.19;5017416;28;45517;-68
2022/04/05 00:04:06;;;;;;;;;13.67;13.67;;;;;11.58;53.85;100935.19;5018239;28;45407;-68
2022/04/05 00:06:32;;;;;;;;;12.33;11.33;;;;;11.67;54.16;100946.81;5016906;28;45486;-69
2022/04/05 00:08:57;;;;;;;;;18.00;16.00;;;;;11.69;54.64;100944.84;5017580;28;45224;-70
2022/04/05 00:11:22;;;;;;;;;14.00;14.00;;;;;11.36;54.92;100894.78;5017521;28;46097;-69
2022/04/05 00:13:48;;;;;;;;;16.33;15.00;;;;;11.69;54.71;100955.50;5017524;28;45252;-67
2022/04/05 00:16:16;;;;;;;;;15.00;14.00;;;;;11.45;54.35;100905.41;5016240;28;45287;-69
2022/04/05 00:18:42;;;;;;;;;15.33;14.67;;;;;11.64;55.05;100936.47;5016237;28;45590;-68
2022/04/05 00:21:07;;;;;;;;;11.67;11.00;;;;;11.40;55.39;100901.50;5012249;28;46747;-67
2022/04/05 00:23:33;;;;;;;;;14.00;13.00;;;;;11.71;55.49;100950.88;4997777;28;45450;-69
2022/04/05 00:25:58;;;;;;;;;14.00;13.00;;;;;11.34;55.79;100902.09;4996654;28;45429;-70
2022/04/05 00:28:24;;;;;;;;;14.33;14.33;;;;;11.61;56.17;100950.03;4997891;28;45465;-70
2022/04/05 00:30:49;;;;;;;;;13.67;11.33;;;;;11.58;55.99;100937.03;4996269;28;47659;-68
2022/04/05 00:33:15;;;;;;;;;13.33;13.33;;;;;11.60;56.48;100951.03;4997360;28;45386;-68
2022/04/05 00:35:41;;;;;;;;;11.67;11.67;;;;;11.56;57.16;100952.31;5029292;28;45467;-69
2022/04/05 00:38:09;;;;;;;;;11.00;10.00;;;;;11.46;56.89;100944.38;5016224;28;45223;-70
2022/04/05 00:40:36;;;;;;;;;12.33;12.33;;;;;11.59;56.69;100954.69;5016785;28;45510;-69
2022/04/05 00:43:05;;;;;;;;;12.33;12.33;;;;;11.38;57.41;100930.09;5016015;28;45452;-68
2022/04/05 00:45:34;;;;;;;;;13.67;13.00;;;;;11.52;57.30;100953.59;5017325;28;45284;-69
2022/04/05 00:48:00;;;;;;;;;11.67;10.00;;;;;11.47;57.57;100929.25;5016004;28;45254;-69
2022/04/05 00:50:27;;;;;;;;;13.67;11.67;;;;;11.55;57.52;100932.00;5000371;28;46821;-70
2022/04/05 00:52:56;;;;;;;;;11.33;11.00;;;;;11.52;57.53;100927.81;4979489;28;45634;-70
2022/04/05 00:55:26;;;;;;;;;13.67;13.67;;;;;11.49;57.84;100917.44;4997437;28;45293;-68
2022/04/05 00:57:53;;;;;;;;;13.00;11.33;;;;;11.58;57.81;100945.00;4996169;28;45629;-69
2022/04/05 01:00:19;;;;;;;;;12.67;11.00;;;;;11.58;57.58;100947.69;5007493;28;47458;-68
2022/04/05 01:02:47;;;;;;;;;14.33;13.33;;;;;11.58;57.54;100937.03;5012513;28;45692;-69
2022/04/05 01:05:16;;;;;;;;;12.67;12.67;;;;;11.33;57.31;100893.25;5027847;28;45273;-76
2022/04/05 01:07:45;;;;;;;;;11.67;11.67;;;;;11.72;57.59;100944.56;5015608;28;45495;-68
2022/04/05 01:10:11;;;;;;;;;15.67;14.33;;;;;11.72;57.32;100949.88;5019313;28;45943;-68
2022/04/05 01:12:37;;;;;;;;;14.67;14.67;;;;;11.67;57.63;100925.50;5018858;28;45236;-68
2022/04/05 01:15:03;;;;;;;;;9.00;9.00;;;;;11.61;58.01;100931.41;5004376;28;45452;-69
2022/04/05 01:17:28;;;;;;;;;11.33;10.00;;;;;11.20;58.40;100860.78;5001161;28;45200;-69
2022/04/05 01:19:55;;;;;;;;;15.67;12.33;;;;;11.54;58.96;100914.34;5000613;28;46087;-70
2022/04/05 01:22:23;;;;;;;;;14.33;14.00;;;;;11.37;59.56;100893.81;5000364;28;45540;-69
2022/04/05 01:24:48;;;;;;;;;15.33;11.67;;;;;11.58;59.99;100932.53;4999228;28;45243;-68
2022/04/05 01:27:18;;;;;;;;;14.67;12.67;;;;;11.52;59.83;100927.81;5000621;28;45396;-69
2022/04/05 01:29:44;;;;;;;;;15.33;14.67;;;;;11.36;60.36;100900.94;5009723;28;46253;-70
2022/04/05 01:32:09;;;;;;;;;10.00;10.00;;;;;11.34;59.93;100899.41;4998743;28;45460;-70
2022/04/05 01:34:37;;;;;;;;;9.67;9.67;;;;;11.51;60.33;100925.28;5000417;28;45467;-70
2022/04/05 01:37:05;;;;;;;;;12.33;9.67;;;;;11.46;59.80;100908.91;4999542;28;45370;-69
2022/04/05 01:39:33;;;;;;;;;11.00;10.00;;;;;11.58;59.98;100921.88;4999097;28;46349;-70
2022/04/05 01:42:03;;;;;;;;;12.67;12.67;;;;;11.63;59.61;100920.63;5000153;28;45338;-69
2022/04/05 01:44:31;;;;;;;;;11.33;11.33;;;;;11.66;60.02;100926.50;5014470;28;45360;-68
2022/04/05 01:46:57;;;;;;;;;13.00;12.00;;;;;11.53;60.23;100902.03;5020400;28;45212;-69
2022/04/05 01:49:23;;;;;;;;;11.00;11.00;;;;;11.58;60.36;100905.91;5019488;28;46304;-69
2022/04/05 01:51:49;;;;;;;;;13.00;12.00;;;;;11.60;60.15;100908.44;5018386;28;45270;-70
2022/04/05 01:54:17;;;;;;;;;12.33;11.67;;;;;11.59;59.75;100901.41;5020069;28;45241;-70
2022/04/05 01:56:48;;;;;;;;;12.33;12.33;;;;;11.58;60.57;100911.22;5018674;28;45580;-70
2022/04/05 01:59:15;;;;;;;;;14.67;14.33;;;;;11.46;60.96;100896.44;5019309;28;45752;-69
2022/04/05 02:01:41;;;;;;;;;13.33;11.67;;;;;11.47;61.07;100903.44;5018045;28;45278;-69
2022/04/05 02:04:09;;;;;;;;;15.00;12.67;;;;;11.52;61.11;100908.31;5019529;28;45326;-67
2022/04/05 02:06:34;;;;;;;;;13.33;13.33;;;;;11.56;61.28;100913.22;5019649;28;45518;-69
2022/04/05 02:09:00;;;;;;;;;15.33;13.00;;;;;11.48;61.58;100901.63;5018736;28;45985;-69
2022/04/05 02:11:25;;;;;;;;;13.67;13.00;;;;;11.47;61.66;100907.94;5018076;28;45584;-69
2022/04/05 02:13:51;;;;;;;;;14.33;14.33;;;;;11.49;61.18;100895.31;5018180;28;45255;-70
2022/04/05 02:16:17;;;;;;;;;12.00;12.00;;;;;11.41;61.10;100887.19;5020113;28;45367;-69
2022/04/05 02:18:42;;;;;;;;;11.33;11.33;;;;;11.56;61.16;100912.38;5019219;28;45607;-68
2022/04/05 02:21:11;;;;;;;;;16.33;16.33;;;;;11.54;61.01;100903.69;5016921;28;45242;-70
2022/04/05 02:23:36;;;;;;;;;13.00;12.00;;;;;11.09;61.27;100826.41;5014572;28;45562;-70
2022/04/05 02:26:02;;;;;;;;;10.00;10.00;;;;;11.45;61.22;100891.28;4999461;28;45476;-70
2022/04/05 02:28:28;;;;;;;;;14.00;12.00;;;;;11.46;61.27;100906.25;4999999;28;48297;-69
2022/04/05 02:30:53;;;;;;;;;11.33;11.33;;;;;11.24;61.25;100859.53;5019366;28;45527;-70
2022/04/05 02:33:19;;;;;;;;;13.33;13.33;;;;;11.46;61.71;100903.59;5019351;28;45320;-69
2022/04/05 02:35:45;;;;;;;;;13.67;11.67;;;;;11.02;61.59;100827.97;5018346;28;45356;-69
2022/04/05 02:38:11;;;;;;;;;16.33;13.33;;;;;11.25;61.51;100864.72;5018561;28;46958;-68
2022/04/05 02:40:37;;;;;;;;;14.00;12.00;;;;;11.45;61.46;100894.78;5019113;28;45254;-71
2022/04/05 02:43:03;;;;;;;;;9.00;9.00;;;;;11.40;61.35;100880.19;5017637;28;45378;-69
2022/04/05 02:45:29;;;;;;;;;15.00;14.00;;;;;11.46;61.22;100885.81;5019134;28;45250;-71
2022/04/05 02:47:55;;;;;;;;;14.33;12.00;;;;;11.61;60.87;100888.78;5018668;28;46036;-69
2022/04/05 02:50:20;;;;;;;;;11.00;11.00;;;;;11.63;61.24;100892.19;5019305;28;45329;-70
2022/04/05 02:52:46;;;;;;;;;13.00;10.67;;;;;11.48;61.51;100867.00;5013863;28;45529;-68
2022/04/05 02:55:15;;;;;;;;;12.00;12.00;;;;;11.51;61.74;100872.03;5011380;28;45480;-69
2022/04/05 02:57:42;;;;;;;;;11.00;11.00;;;;;11.46;62.56;100887.63;5017149;28;47149;-69
2022/04/05 03:00:10;;;;;;;;;11.67;11.67;;;;;11.43;62.96;100888.75;5018236;28;45548;-68
2022/04/05 03:02:36;;;;;;;;;15.00;14.00;;;;;11.37;62.58;100880.50;5017112;28;45437;-69
2022/04/05 03:05:02;;;;;;;;;16.67;15.33;;;;;11.25;62.71;100862.06;5017434;28;45457;-69
2022/04/05 03:07:28;;;;;;;;;12.67;12.33;;;;;10.93;62.78;100816.38;5016556;28;48567;-67
2022/04/05 03:09:53;;;;;;;;;14.00;13.00;;;;;11.42;62.63;100880.91;5018409;28;45496;-72
2022/04/05 03:12:19;;;;;;;;;13.00;12.67;;;;;11.36;62.76;100853.03;5019004;28;45268;-69
2022/04/05 03:14:45;;;;;;;;;12.67;12.33;;;;;11.33;62.96;100849.84;5017901;28;45445;-70
2022/04/05 03:17:12;;;;;;;;;13.00;12.33;;;;;11.32;62.98;100846.34;5018724;28;45561;-67
2022/04/05 03:19:37;;;;;;;;;11.00;11.00;;;;;11.46;63.63;100874.31;5018419;28;45327;-68
2022/04/05 03:22:05;;;;;;;;;13.67;13.67;;;;;11.31;64.05;100865.13;5018053;28;45636;-69
2022/04/05 03:24:31;;;;;;;;;11.67;11.67;;;;;11.38;63.79;100872.34;5018736;28;45658;-69
2022/04/05 03:26:58;;;;;;;;;12.67;11.00;;;;;11.39;63.80;100873.19;5017158;28;47606;-69
2022/04/05 03:29:23;;;;;;;;;12.67;12.67;;;;;11.34;63.06;100843.53;5017845;28;45539;-70
2022/04/05 03:31:49;;;;;;;;;10.00;10.00;;;;;11.49;63.55;100876.69;5017950;28;45416;-71
2022/04/05 03:34:14;;;;;;;;;11.67;11.67;;;;;11.48;64.21;100869.69;5017000;28;45666;-68
2022/04/05 03:36:43;;;;;;;;;12.33;12.33;;;;;11.36;64.14;100863.69;5017722;28;45388;-67
2022/04/05 03:39:10;;;;;;;;;11.00;9.67;;;;;11.47;64.03;100866.19;5018091;28;45248;-70
2022/04/05 03:41:36;;;;;;;;;12.67;12.67;;;;;11.46;64.20;100867.16;5016677;28;45326;-70
2022/04/05 03:44:01;;;;;;;;;14.00;12.67;;;;;11.34;64.38;100841.69;5017939;28;45333;-70
2022/04/05 03:46:27;;;;;;;;;11.67;10.67;;;;;11.47;64.31;100860.00;5017769;28;46120;-68
2022/04/05 03:48:52;;;;;;;;;11.33;10.33;;;;;11.44;64.25;100857.66;5017780;28;45424;-69
2022/04/05 03:51:18;;;;;;;;;10.00;10.00;;;;;11.51;64.35;100856.06;5017388;28;45249;-71
2022/04/05 03:53:43;;;;;;;;;8.33;7.33;;;;;11.41;64.77;100849.94;5018209;28;45462;-67
2022/04/05 03:56:09;;;;;;;;;9.33;9.33;;;;;11.44;64.57;100839.84;5017524;28;45980;-68
2022/04/05 03:58:34;;;;;;;;;9.33;9.33;;;;;11.52;64.61;100841.75;5017155;28;45601;-69
2022/04/05 04:00:59;;;;;;;;;12.67;11.00;;;;;11.59;64.71;100853.50;5017288;28;45638;-67
2022/04/05 04:03:25;;;;;;;;;11.00;11.00;;;;;11.57;65.49;100842.16;5017864;28;45435;-68
2022/04/05 04:05:50;;;;;;;;;10.00;9.33;;;;;11.56;65.98;100851.97;5016814;28;45642;-70
2022/04/05 04:09:21;;;;;;;;;10.00;9.00;;;;;11.38;66.48;100823.59;5016962;28;45308;-69
2022/04/05 04:11:32;;;;;;;;;12.00;11.00;;;;;11.41;66.58;100847.28;5014474;28;45391;-69
2022/04/05 04:14:00;;;;;;;;;10.67;10.67;;;;;11.33;66.58;100825.88;5017446;28;45225;-68
2022/04/05 04:16:26;;;;;;;;;11.00;10.67;;;;;11.45;67.02;100851.34;5017253;28;46632;-69
2022/04/05 04:18:51;;;;;;;;;10.67;10.67;;;;;11.42;66.79;100835.66;5015761;28;45627;-68
2022/04/05 04:21:17;;;;;;;;;10.00;9.33;;;;;11.47;67.07;100844.03;5016347;28;45492;-69
2022/04/05 04:23:42;;;;;;;;;11.67;11.67;;;;;11.50;66.21;100835.75;5016628;28;45504;-70
2022/04/05 04:26:07;;;;;;;;;14.67;13.00;;;;;11.48;66.89;100851.03;5017367;28;46318;-70
2022/04/05 04:28:33;;;;;;;;;13.67;12.33;;;;;11.42;67.53;100847.16;5016785;28;45578;-69
2022/04/05 04:30:58;;;;;;;;;13.00;12.00;;;;;11.04;67.23;100786.09;5017133;28;45498;-69
2022/04/05 04:33:24;;;;;;;;;11.00;10.00;;;;;11.27;67.42;100829.97;5017142;28;45498;-70
2022/04/05 04:35:50;;;;;;;;;9.67;9.33;;;;;11.24;67.21;100830.28;5016475;28;46177;-69
2022/04/05 04:38:15;;;;;;;;;10.33;10.00;;;;;11.30;67.74;100847.47;5017067;28;45362;-69
2022/04/05 04:40:50;;;;;;;;;13.00;12.00;;;;;11.22;67.91;100841.06;5016826;28;45242;-70
2022/04/05 04:43:23;;;;;;;;;12.33;12.00;;;;;11.08;68.51;100822.91;5015028;28;45515;-69
2022/04/05 04:45:48;;;;;;;;;12.33;12.00;;;;;11.11;68.76;100830.59;5015376;28;46125;-70
2022/04/05 04:48:14;;;;;;;;;10.00;10.00;;;;;11.07;68.73;100825.72;5016915;28;45491;-69
2022/04/05 04:50:39;;;;;;;;;12.00;11.00;;;;;11.11;69.05;100838.56;5015578;28;45485;-68
2022/04/05 04:53:05;;;;;;;;;11.67;11.67;;;;;10.76;69.14;100777.22;5016680;28;45526;-70
2022/04/05 04:55:33;;;;;;;;;14.00;14.00;;;;;10.98;69.08;100812.28;5016781;28;45541;-68
2022/04/05 04:57:59;;;;;;;;;14.00;11.67;;;;;11.04;68.59;100826.84;5013846;28;45778;-70
2022/04/05 05:00:28;;;;;;;;;11.00;11.00;;;;;11.14;68.92;100835.63;5015428;28;45251;-70
2022/04/05 05:02:53;;;;;;;;;12.00;12.00;;;;;11.14;68.98;100846.25;5017037;28;45603;-69
2022/04/05 05:05:20;;;;;;;;;18.67;14.33;;;;;11.20;68.87;100840.34;5016340;28;45615;-70
2022/04/05 05:07:47;;;;;;;;;13.67;13.33;;;;;11.11;68.50;100822.59;5016424;28;45398;-68
2022/04/05 05:10:13;;;;;;;;;13.00;13.00;;;;;11.21;68.87;100838.53;5016090;28;45408;-69
2022/04/05 05:12:42;;;;;;;;;12.67;12.67;;;;;11.15;69.23;100834.63;5016758;28;45233;-69
2022/04/05 05:15:09;;;;;;;;;14.00;12.67;;;;;11.15;69.26;100828.47;5013504;28;45588;-68
2022/04/05 05:17:35;;;;;;;;;12.67;12.33;;;;;11.19;69.44;100836.00;5015077;28;45387;-70
2022/04/05 05:20:02;;;;;;;;;14.00;14.00;;;;;11.17;69.08;100827.34;5010945;28;45337;-69
2022/04/05 05:22:27;;;;;;;;;11.67;11.67;;;;;11.20;69.28;100832.38;5011003;28;45555;-69
2022/04/05 05:24:53;;;;;;;;;10.67;10.67;;;;;11.18;69.26;100823.69;5008989;28;47007;-70
2022/04/05 05:27:18;;;;;;;;;15.33;13.00;;;;;11.15;69.24;100825.81;5012681;28;45662;-69
2022/04/05 05:29:44;;;;;;;;;14.00;14.00;;;;;11.27;69.35;100841.47;5016576;28;45265;-70
2022/04/05 05:32:09;;;;;;;;;17.33;14.33;;;;;11.11;69.12;100806.63;5016541;28;45516;-71
2022/04/05 05:34:35;;;;;;;;;12.00;12.00;;;;;11.18;69.44;100837.00;5014085;28;47200;-70
2022/04/05 05:37:05;;;;;;;;;17.33;15.00;;;;;10.88;69.23;100784.88;5011972;28;45346;-67
2022/04/05 05:39:32;;;;;;;;;14.67;14.67;;;;;11.11;69.18;100819.94;4996431;28;45527;-70
2022/04/05 05:41:58;;;;;;;;;24.00;20.00;;;;;11.27;69.80;100833.47;4994835;28;45360;-70
2022/04/05 05:44:24;;;;;;;;;15.00;15.00;;;;;10.90;70.03;100784.72;4994763;28;45953;-70
2022/04/05 05:46:50;;;;;;;;;16.00;16.00;;;;;11.10;69.62;100825.41;5010634;28;45246;-69
2022/04/05 05:49:16;;;;;;;;;15.00;14.33;;;;;11.19;69.87;100832.50;5014844;28;45543;-69
2022/04/05 05:51:41;;;;;;;;;11.67;11.67;;;;;11.15;69.34;100818.66;5013815;28;45979;-70
2022/04/05 05:54:07;;;;;;;;;15.67;15.67;;;;;11.18;69.36;100818.38;5015435;28;46043;-70
2022/04/05 05:56:32;;;;;;;;;15.00;15.00;;;;;11.30;69.40;100831.50;5005782;28;45912;-73
2022/04/05 05:58:57;;;;;;;;;16.67;15.33;;;;;11.34;69.33;100838.19;5018954;28;45230;-69
2022/04/05 06:01:23;;;;;;;;;13.67;13.67;;;;;11.36;69.39;100846.88;5019282;28;45721;-69
2022/04/05 06:03:50;;;;;;;;;13.33;13.33;;;;;11.23;69.68;100821.44;5017572;28;47105;-70
2022/04/05 06:06:16;;;;;;;;;13.33;13.33;;;;;11.23;69.24;100832.09;5018010;28;45543;-71
2022/04/05 06:08:41;;;;;;;;;16.33;15.00;;;;;11.31;69.31;100841.16;5019314;28;45333;-71
2022/04/05 06:11:07;;;;;;;;;14.00;13.00;;;;;11.32;69.55;100846.34;5017743;28;45528;-70
2022/04/05 06:13:33;;;;;;;;;12.67;12.67;;;;;11.23;69.73;100842.75;5016841;28;47366;-70
2022/04/05 06:15:59;;;;;;;;;13.67;13.33;;;;;11.27;69.50;100849.44;5018083;28;45265;-74
2022/04/05 06:18:24;;;;;;;;;16.00;15.00;;;;;11.21;69.89;100839.38;5018050;28;45287;-69
2022/04/05 06:20:50;;;;;;;;;16.33;15.67;;;;;11.30;69.73;100852.78;5020357;28;45428;-73
2022/04/05 06:23:15;;;;;;;;;10.00;10.00;;;;;11.18;69.81;100839.66;5016019;28;46573;-69
2022/04/05 06:25:40;;;;;;;;;14.00;14.00;;;;;11.18;70.33;100839.66;5016176;28;45352;-69
2022/04/05 06:28:07;;;;;;;;;11.00;11.00;;;;;11.32;69.96;100858.81;5014370;28;45444;-70
2022/04/05 06:30:36;;;;;;;;;11.00;11.00;;;;;11.26;70.67;100850.44;5016234;28;45391;-70
2022/04/05 06:33:05;;;;;;;;;14.33;12.33;;;;;11.32;70.80;100877.44;5016191;28;45557;-72
2022/04/05 06:35:30;;;;;;;;;11.67;10.00;;;;;11.31;70.64;100879.25;5018314;28;45281;-70
2022/04/05 06:37:56;;;;;;;;;11.33;11.33;;;;;11.32;70.79;100872.94;5018172;28;45459;-71
2022/04/05 06:40:21;;;;;;;;;16.00;16.00;;;;;10.87;71.49;100798.31;5018080;28;45665;-68
2022/04/05 06:42:47;;;;;;;;;11.33;11.33;;;;;11.25;71.19;100866.53;5015960;28;48154;-71
2022/04/05 06:45:20;;;;;;;;;11.33;10.67;;;;;10.85;71.63;100800.28;5033549;28;45401;-68
2022/04/05 06:47:47;;;;;;;;;17.00;17.00;;;;;11.22;71.96;100867.69;5013865;28;45539;-68
2022/04/05 06:50:14;;;;;;;;;14.67;14.67;;;;;11.23;71.46;100853.38;5031481;28;45472;-69
2022/04/05 06:52:41;;;;;;;;;12.33;10.67;;;;;11.34;71.52;100864.81;5016174;28;48359;-69
2022/04/05 06:55:09;;;;;;;;;14.67;14.67;;;;;11.43;70.94;100864.81;5011855;28;45634;-70
2022/04/05 06:57:35;;;;;;;;;14.33;12.00;;;;;11.55;71.38;100881.41;5008292;28;45559;-70
2022/04/05 07:00:01;;;;;;;;;13.33;11.00;;;;;11.57;71.57;100876.78;5015879;28;45557;-69
2022/04/05 07:02:27;;;;;;;;;12.67;10.00;;;;;11.49;71.45;100876.69;5017718;28;46544;-71
2022/04/05 07:04:54;;;;;;;;;14.00;13.00;;;;;11.51;71.51;100869.38;5018093;28;45305;-71
2022/04/05 07:07:20;;;;;;;;;12.00;11.00;;;;;11.38;71.72;100850.22;5013529;28;45294;-71
2022/04/05 07:09:48;;;;;;;;;9.33;9.33;;;;;11.28;71.32;100824.50;5008152;28;45300;-74
2022/04/05 07:12:14;;;;;;;;;11.00;11.00;;;;;11.33;71.11;100820.56;5012850;28;47181;-70
2022/04/05 07:14:39;;;;;;;;;10.67;10.67;;;;;11.55;71.19;100839.63;4996330;28;45516;-69
2022/04/05 07:17:05;;;;;;;;;14.00;13.67;;;;;11.63;71.14;100848.72;4998043;28;45234;-69
2022/04/05 07:19:30;;;;;;;;;10.67;10.00;;;;;11.79;70.83;100865.75;4998370;28;45435;-71
2022/04/05 07:21:59;;;;;;;;;11.33;11.33;;;;;11.80;70.98;100866.59;5016671;28;47097;-70
2022/04/05 07:24:26;;;;;;;;;9.33;9.33;;;;;11.49;71.04;100813.63;5015286;28;45451;-69
2022/04/05 07:26:52;;;;;;;;;14.00;12.00;;;;;11.83;70.75;100864.50;5017603;28;45341;-70
2022/04/05 07:29:17;;;;;;;;;9.67;9.67;;;;;11.70;70.98;100834.66;5015669;28;45543;-70
2022/04/05 07:31:43;;;;;;;;;11.67;9.33;;;;;11.87;71.22;100862.38;5017576;28;45656;-70
2022/04/05 07:34:08;;;;;;;;;11.00;11.00;;;;;11.82;70.60;100841.50;5032429;28;45457;-69
2022/04/05 07:36:34;;;;;;;;;14.00;12.00;;;;;11.99;70.72;100868.31;5017957;28;45179;-68
2022/04/05 07:38:59;;;;;;;;;11.00;11.00;;;;;12.14;70.50;100864.97;5017475;28;45503;-69
2022/04/05 07:41:25;;;;;;;;;11.67;11.67;;;;;11.85;70.28;100827.88;5000872;28;48885;-69
2022/04/05 07:43:51;;;;;;;;;13.00;10.33;;;;;12.13;70.34;100873.13;4997697;28;45367;-70
2022/04/05 07:46:16;;;;;;;;;9.33;9.33;;;;;12.19;70.05;100877.84;4997803;28;45219;-70
2022/04/05 07:48:42;;;;;;;;;13.00;11.00;;;;;12.22;70.04;100876.72;4996220;28;45497;-69
2022/04/05 07:51:09;;;;;;;;;11.00;11.00;;;;;12.15;70.55;100879.13;5009419;28;45602;-69
2022/04/05 07:53:34;;;;;;;;;13.00;13.00;;;;;12.19;70.72;100873.34;5016482;28;45683;-70
2022/04/05 07:56:00;;;;;;;;;11.00;11.00;;;;;12.10;70.44;100849.44;5017473;28;45424;-71
2022/04/05 07:58:28;;;;;;;;;13.67;12.00;;;;;12.13;70.10;100841.16;5015222;28;45507;-69
2022/04/05 08:00:54;;;;;;;;;10.67;10.00;;;;;12.03;69.94;100814.59;5015709;28;45497;-70
2022/04/05 08:03:19;;;;;;;;;12.33;12.33;;;;;12.48;69.27;100878.47;5016602;28;45178;-70
2022/04/05 08:05:44;;;;;;;;;12.67;12.67;;;;;12.52;69.54;100872.84;5014939;28;45469;-69
2022/04/05 08:08:10;;;;;;;;;13.00;12.00;;;;;12.48;69.64;100869.63;5017227;28;45537;-70
2022/04/05 08:10:36;;;;;;;;;18.33;16.00;;;;;12.34;69.55;100859.50;5016550;28;45548;-70
2022/04/05 08:13:01;;;;;;;;;11.67;11.33;;;;;12.51;69.66;100881.81;5016453;28;45603;-69
2022/04/05 08:15:27;;;;;;;;;18.33;16.67;;;;;12.28;70.23;100839.63;5016679;28;45317;-70
2022/04/05 08:17:52;;;;;;;;;14.00;14.00;;;;;12.53;69.57;100875.34;5016570;28;45507;-70
2022/04/05 08:20:19;;;;;;;;;17.33;16.33;;;;;12.22;70.19;100832.25;5015413;28;45933;-70
2022/04/05 08:22:46;;;;;;;;;14.67;14.00;;;;;12.52;69.52;100883.50;5016625;28;45261;-70
2022/04/05 08:25:14;;;;;;;;;17.00;15.00;;;;;12.51;69.61;100877.31;5016932;28;45546;-70
2022/04/05 08:27:40;;;;;;;;;13.33;13.33;;;;;12.46;69.56;100858.28;5015474;28;45278;-71
2022/04/05 08:30:08;;;;;;;;;11.67;11.67;;;;;12.67;69.25;100889.97;5015382;28;48259;-69
2022/04/05 08:32:36;;;;;;;;;12.67;12.67;;;;;12.66;69.19;100896.31;5015988;28;45451;-69
2022/04/05 08:35:03;;;;;;;;;13.67;13.67;;;;;12.64;69.69;100893.78;5016835;28;45306;-71
2022/04/05 08:37:28;;;;;;;;;19.33;17.67;;;;;12.55;69.96;100894.69;5015073;28;45425;-71
2022/04/05 08:39:55;;;;;;;;;16.33;14.67;;;;;12.61;70.00;100893.22;5015028;28;46559;-69
2022/04/05 08:42:21;;;;;;;;;12.67;12.00;;;;;12.64;69.60;100883.13;5016507;28;45228;-71
2022/04/05 08:44:49;;;;;;;;;16.67;14.00;;;;;12.29;70.14;100838.63;5015270;28;45408;-70
2022/04/05 08:47:17;;;;;;;;;12.67;12.67;;;;;12.53;70.44;100877.16;5014886;28;45555;-70
2022/04/05 08:49:43;;;;;;;;;15.00;14.33;;;;;12.52;71.04;100857.66;5015328;28;46496;-70
2022/04/05 08:52:09;;;;;;;;;15.00;15.00;;;;;12.48;70.35;100850.97;5015933;28;45335;-72
2022/04/05 08:54:34;;;;;;;;;14.33;14.33;;;;;12.08;70.31;100784.81;5016385;28;45359;-69
2022/04/05 08:57:00;;;;;;;;;16.00;13.33;;;;;12.70;70.52;100895.00;5016551;28;45348;-69
2022/04/05 08:59:30;;;;;;;;;11.67;11.67;;;;;12.68;70.45;100892.47;5016379;28;45734;-69
2022/04/05 09:01:56;;;;;;;;;15.67;12.00;;;;;12.68;71.01;100886.31;5016038;28;45363;-70
2022/04/05 09:04:21;;;;;;;;;18.00;17.00;;;;;12.79;70.32;100886.06;5016326;28;45862;-69
2022/04/05 09:06:47;;;;;;;;;14.67;12.67;;;;;12.87;70.07;100888.81;5016359;28;45526;-69
2022/04/05 09:09:14;;;;;;;;;14.00;14.00;;;;;12.91;70.05;100890.16;5015270;28;46233;-70
2022/04/05 09:11:48;;;;;;;;;16.00;14.00;;;;;12.80;70.00;100861.88;5014336;28;45751;-69
2022/04/05 09:14:25;;;;;;;;;15.00;13.33;;;;;12.93;70.44;100882.84;5012738;28;45370;-71
2022/04/05 09:17:08;;;;;;;;;18.00;16.67;;;;;12.98;70.14;100885.88;5015680;28;45551;-73
2022/04/05 09:19:38;;;;;;;;;14.67;13.33;;;;;12.94;69.88;100873.00;5014046;28;46690;-69
2022/04/05 09:22:04;;;;;;;;;15.00;14.67;;;;;13.00;69.76;100873.19;5013668;28;45427;-71
2022/04/05 09:24:39;;;;;;;;;16.00;14.67;;;;;13.07;69.94;100884.09;5015765;28;45475;-70
2022/04/05 09:27:06;;;;;;;;;13.67;12.67;;;;;13.02;69.91;100867.72;5014249;28;45525;-69
2022/04/05 09:29:42;;;;;;;;;14.00;14.00;;;;;13.13;69.30;100887.97;5015490;28;45523;-69
2022/04/05 09:32:08;;;;;;;;;13.33;10.67;;;;;12.88;69.64;100834.44;5019379;28;45250;-69
2022/04/05 09:34:49;;;;;;;;;18.00;17.00;;;;;13.13;69.83;100877.28;5018963;28;45385;-69
2022/04/05 09:37:14;;;;;;;;;14.67;14.33;;;;;13.03;69.70;100866.72;5000061;28;45483;-70
2022/04/05 09:39:41;;;;;;;;;19.33;18.33;;;;;13.16;69.32;100890.31;5001748;28;48517;-70
2022/04/05 09:42:08;;;;;;;;;16.00;14.67;;;;;13.21;69.67;100899.56;5014544;28;45459;-69
2022/04/05 09:44:40;;;;;;;;;15.00;15.00;;;;;13.21;69.59;100885.38;4999598;28;45313;-69
2022/04/05 09:47:24;;;;;;;;;17.33;17.00;;;;;13.38;69.87;100887.16;4999627;28;45380;-71
2022/04/05 09:49:50;;;;;;;;;14.00;14.00;;;;;13.36;68.79;100889.16;5005622;28;46557;-68
2022/04/05 09:52:30;;;;;;;;;13.00;13.00;;;;;13.40;69.16;100880.66;5018651;28;45423;-70
2022/04/05 09:55:12;;;;;;;;;14.67;13.33;;;;;13.35;69.07;100874.13;5019353;28;45337;-70
2022/04/05 09:57:41;;;;;;;;;13.00;12.00;;;;;13.24;68.99;100845.03;5018182;28;45431;-71
2022/04/05 10:00:19;;;;;;;;;14.00;12.33;;;;;13.51;68.97;100886.72;5018300;28;46575;-70
2022/04/05 10:03:04;;;;;;;;;13.67;13.67;;;;;13.57;69.20;100876.22;5016908;28;45443;-72
2022/04/05 10:05:31;;;;;;;;;19.67;19.00;;;;;13.56;69.48;100879.91;5019689;28;45309;-70
2022/04/05 10:08:00;;;;;;;;;15.33;14.00;;;;;13.21;68.93;100818.63;5018189;28;45694;-69
2022/04/05 10:10:26;;;;;;;;;15.00;10.67;;;;;13.46;69.39;100846.31;5016757;28;45444;-70
2022/04/05 10:12:52;;;;;;;;;17.67;16.33;;;;;13.64;69.33;100877.28;5016971;28;45716;-70
2022/04/05 10:15:21;;;;;;;;;17.67;14.00;;;;;13.68;68.96;100888.47;5017754;28;45528;-74
2022/04/05 10:17:49;;;;;;;;;14.33;13.67;;;;;13.66;68.91;100885.97;5016306;28;45390;-72
2022/04/05 10:20:17;;;;;;;;;16.33;12.67;;;;;13.65;69.45;100880.78;5016212;28;47148;-70
2022/04/05 10:22:44;;;;;;;;;13.00;12.67;;;;;13.69;68.91;100876.78;5017353;28;45394;-70
2022/04/05 10:25:10;;;;;;;;;15.00;14.67;;;;;13.56;68.90;100855.84;5017383;28;45536;-69
2022/04/05 10:27:39;;;;;;;;;12.33;12.33;;;;;13.66;68.86;100867.28;5018836;28;45517;-71
2022/04/05 10:30:15;;;;;;;;;13.00;12.67;;;;;13.77;68.36;100875.97;5017123;28;47082;-71
2022/04/05 10:32:59;;;;;;;;;12.00;12.00;;;;;13.78;68.34;100877.66;5017402;28;45499;-69
2022/04/05 10:35:25;;;;;;;;;11.00;11.00;;;;;13.48;68.50;100845.16;5018133;28;45441;-72
2022/04/05 10:38:13;;;;;;;;;14.67;14.67;;;;;13.63;68.74;100869.44;5018583;28;45222;-73
2022/04/05 10:40:38;;;;;;;;;15.00;13.33;;;;;13.48;68.66;100845.16;5017735;28;46190;-70
2022/04/05 10:43:19;;;;;;;;;14.00;13.00;;;;;13.77;68.84;100887.50;5016437;28;45468;-71
2022/04/05 10:45:45;;;;;;;;;13.67;13.67;;;;;13.81;68.50;100877.31;5018294;28;45345;-71
2022/04/05 10:48:20;;;;;;;;;12.00;12.00;;;;;13.66;68.53;100869.09;5018384;28;45416;-71
2022/04/05 10:51:05;;;;;;;;;12.33;11.67;;;;;13.83;68.53;100889.56;5018171;28;45993;-69
2022/04/05 10:56:28;;;;;;;;;11.00;11.00;;;;;13.77;68.44;100849.25;5018396;28;45496;-72
2022/04/05 10:58:57;;;;;;;;;13.00;11.33;;;;;13.25;68.98;100755.94;5017125;28;45365;-71
2022/04/05 11:01:24;;;;;;;;;16.00;12.00;;;;;13.98;68.43;100869.19;5017687;28;46099;-72
2022/04/05 11:04:12;;;;;;;;;12.67;10.33;;;;;13.97;68.13;100866.69;5017863;28;45391;-69
2022/04/05 11:07:01;;;;;;;;;12.67;11.67;;;;;14.01;68.41;100862.69;5016978;28;45586;-72
2022/04/05 11:09:28;;;;;;;;;11.33;9.67;;;;;14.07;68.11;100863.88;5013688;28;45578;-70
2022/04/05 11:11:54;;;;;;;;;12.33;10.33;;;;;14.04;67.76;100857.03;5016807;28;45258;-70
2022/04/05 11:14:39;;;;;;;;;8.00;8.00;;;;;13.91;68.21;100843.28;5016417;28;45462;-69